createdAt,value
2023-05-11T00:08:49.616Z,12.50
2023-05-11T00:18:52.714Z,13.30
2023-05-11T00:28:56.019Z,10.90
2023-05-11T00:38:59.062Z,12.20
2023-05-11T00:49:02.308Z,13.30
2023-05-11T00:59:05.734Z,9.20
2023-05-11T01:09:46.539Z,11.60
2023-05-11T01:19:59.207Z,11.90
2023-05-11T01:30:40.687Z,8.60
2023-05-11T01:40:45.226Z,8.90
2023-05-11T01:50:51.113Z,6.60
2023-05-11T02:00:55.952Z,7.40
2023-05-11T02:11:01.005Z,6.10
2023-05-11T02:21:05.534Z,7.10
2023-05-11T02:31:13.065Z,8.20
2023-05-11T02:41:26.133Z,8.30
2023-05-11T02:51:38.818Z,8.00
2023-05-11T03:01:43.675Z,7.90
2023-05-11T03:11:47.491Z,9.70
2023-05-11T03:21:52.712Z,11.20
2023-05-11T03:31:56.064Z,8.80
2023-05-11T03:42:01.785Z,8.40
2023-05-11T03:52:06.426Z,7.80
2023-05-11T04:02:09.655Z,9.90
2023-05-11T04:12:13.027Z,7.50
2023-05-11T04:22:18.296Z,11.30
2023-05-11T04:32:21.451Z,34.10
2023-05-11T04:42:24.576Z,8.60
2023-05-11T04:52:30.310Z,9.60
2023-05-11T05:02:33.638Z,9.90
2023-05-11T05:12:37.310Z,9.00
2023-05-11T05:22:41.865Z,9.70
2023-05-11T05:32:45.352Z,7.10
2023-05-11T05:42:48.589Z,6.40
2023-05-11T05:52:56.501Z,9.30
2023-05-11T06:03:01.897Z,7.10
2023-05-11T06:13:06.168Z,5.30
2023-05-11T06:23:09.932Z,5.50
2023-05-11T06:33:15.870Z,3.70
2023-05-11T06:43:19.811Z,4.70
2023-05-11T06:53:24.721Z,4.60
2023-05-11T07:03:28.759Z,3.90
2023-05-11T07:13:52.516Z,4.60
2023-05-11T07:23:58.480Z,4.50
2023-05-11T07:34:01.947Z,6.80
2023-05-11T07:44:05.835Z,3.00
2023-05-11T07:54:08.975Z,1.90
2023-05-11T08:04:12.118Z,1.80
2023-05-11T08:14:15.874Z,2.00
2023-05-11T08:24:18.951Z,7.30
2023-05-11T08:34:23.358Z,2.50
2023-05-11T08:44:27.421Z,2.70
2023-05-11T08:54:30.585Z,3.70
2023-05-11T09:04:35.451Z,6.10
2023-05-11T09:14:39.171Z,3.50
2023-05-11T09:24:43.264Z,3.50
2023-05-11T09:34:46.875Z,2.40
2023-05-11T09:44:53.029Z,3.80
2023-05-11T09:54:56.075Z,2.30
2023-05-11T10:05:11.702Z,2.70
2023-05-11T10:15:16.969Z,3.10
2023-05-11T10:25:23.003Z,1.80
2023-05-11T10:35:27.265Z,1.50
2023-05-11T10:45:56.758Z,4.60
2023-05-11T10:56:34.629Z,3.60
2023-05-11T11:06:41.288Z,3.40
2023-05-11T11:17:15.569Z,4.30
2023-05-11T11:27:18.760Z,2.40
2023-05-11T11:37:23.404Z,3.30
2023-05-11T11:47:27.126Z,2.50
2023-05-11T11:57:30.444Z,2.20
2023-05-11T12:07:34.308Z,3.60
2023-05-11T12:17:39.014Z,3.40
2023-05-11T12:27:58.228Z,3.70
2023-05-11T12:38:05.171Z,7.10
2023-05-11T12:48:11.025Z,2.40
2023-05-11T12:58:16.084Z,4.60
2023-05-11T13:08:20.399Z,3.20
2023-05-11T13:18:24.174Z,2.30
2023-05-11T13:28:27.820Z,6.00
2023-05-11T13:38:31.021Z,3.00
2023-05-11T13:48:34.129Z,3.50
2023-05-11T13:58:37.382Z,4.20
2023-05-11T14:08:40.653Z,5.10
2023-05-11T14:18:44.546Z,3.70
2023-05-11T14:28:50.097Z,5.50
2023-05-11T14:38:54.453Z,3.00
2023-05-11T14:48:57.782Z,2.50
2023-05-11T14:59:00.992Z,4.20
2023-05-11T15:09:04.409Z,6.00
2023-05-11T15:19:07.601Z,3.00
2023-05-11T15:29:11.163Z,3.90
2023-05-11T15:39:16.488Z,2.90
2023-05-11T15:49:19.725Z,4.50
2023-05-11T15:59:22.972Z,4.40
2023-05-11T16:09:26.164Z,3.70
2023-05-11T16:19:30.317Z,2.10
2023-05-11T16:29:33.784Z,2.80
2023-05-11T16:39:36.969Z,4.40
2023-05-11T16:49:40.074Z,4.10
2023-05-11T16:59:43.337Z,2.30
2023-05-11T17:09:46.762Z,4.70
2023-05-11T17:19:49.956Z,7.20
2023-05-11T17:29:53.244Z,5.70
2023-05-11T17:40:23.452Z,3.90
2023-05-11T17:50:26.598Z,7.30
2023-05-11T18:00:32.290Z,11.20
2023-05-11T18:10:35.871Z,7.40
2023-05-11T18:20:39.404Z,9.90
2023-05-11T18:31:07.369Z,5.80
2023-05-11T18:51:18.991Z,13.20
2023-05-11T19:01:26.049Z,6.50
2023-05-11T19:11:36.393Z,6.70
2023-05-11T19:21:41.884Z,11.40
2023-05-11T19:31:45.070Z,9.50
2023-05-11T19:41:51.445Z,10.20
2023-05-11T19:51:55.032Z,9.80
2023-05-11T20:02:04.346Z,9.50
2023-05-11T20:12:32.623Z,10.70
2023-05-11T20:22:36.895Z,10.20
2023-05-11T20:43:13.731Z,11.30
2023-05-11T20:53:17.738Z,9.70
2023-05-11T21:03:21.084Z,10.70
2023-05-11T21:13:24.435Z,12.00
2023-05-11T21:23:29.019Z,9.70
2023-05-11T21:33:32.800Z,10.20
2023-05-11T21:44:01.701Z,11.80
2023-05-11T22:04:09.365Z,9.90
2023-05-11T22:14:14.375Z,10.60
2023-05-11T22:24:17.637Z,12.20
2023-05-11T22:34:24.735Z,13.10
2023-05-11T22:44:28.761Z,12.80
2023-05-11T22:54:31.944Z,12.40
2023-05-11T23:04:35.110Z,10.80
2023-05-11T23:14:38.227Z,11.90
2023-05-11T23:25:06.654Z,8.90
2023-05-11T23:45:13.570Z,8.30
2023-05-11T23:55:41.694Z,8.00
